createdAt,value
2018-01-15T00:00:23.404Z,3.81
2018-01-15T00:01:33.124Z,3.77
2018-01-15T00:02:42.838Z,3.82
2018-01-15T00:03:52.828Z,3.96
2018-01-15T00:05:02.502Z,3.93
2018-01-15T00:06:11.688Z,3.95
2018-01-15T00:07:20.886Z,3.95
2018-01-15T00:08:30.333Z,4.02
2018-01-15T00:09:39.519Z,3.93
2018-01-15T00:10:49.292Z,4.08
2018-01-15T00:11:58.744Z,4.08
2018-01-15T00:13:08.186Z,3.99
2018-01-15T00:14:17.645Z,4.04
2018-01-15T00:15:27.363Z,4.11
2018-01-15T00:16:36.554Z,4.06
2018-01-15T00:17:46.011Z,4.2
2018-01-15T00:18:55.734Z,4.17
2018-01-15T00:20:05.183Z,4.31
2018-01-15T00:21:14.634Z,4.25
2018-01-15T00:22:24.339Z,4.26
2018-01-15T00:23:34.069Z,4.28
2018-01-15T00:24:43.770Z,4.24
2018-01-15T00:25:53.221Z,4.34
2018-01-15T00:27:03.235Z,4.31
2018-01-15T00:28:12.972Z,4.26
2018-01-15T00:29:22.693Z,4.31
2018-01-15T00:30:32.147Z,4.28
2018-01-15T00:31:41.341Z,4.29
2018-01-15T00:32:50.262Z,4.36
2018-01-15T00:33:59.983Z,4.36
2018-01-15T00:35:09.704Z,4.31
2018-01-15T00:36:19.699Z,4.35
2018-01-15T00:37:28.360Z,4.26
2018-01-15T00:38:38.224Z,4.34
2018-01-15T00:39:47.683Z,4.35
2018-01-15T00:40:56.600Z,4.38
2018-01-15T00:42:06.081Z,4.32
2018-01-15T00:43:15.530Z,4.29
2018-01-15T00:44:24.983Z,4.26
2018-01-15T00:45:34.697Z,4.26
2018-01-15T00:46:44.143Z,4.24
2018-01-15T00:47:53.866Z,4.24
2018-01-15T00:49:02.794Z,4.36
2018-01-15T00:50:12.662Z,4.26
2018-01-15T00:51:22.425Z,4.29
2018-01-15T00:52:32.200Z,4.26
2018-01-15T00:53:41.654Z,4.29
2018-01-15T00:54:50.577Z,4.24
2018-01-15T00:56:00.302Z,4.21
2018-01-15T00:57:10.280Z,4.14
2018-01-15T00:58:19.742Z,4.07
2018-01-15T00:59:29.193Z,4.16
2018-01-15T01:00:38.916Z,4.02
2018-01-15T01:01:48.637Z,4.02
2018-01-15T01:02:57.550Z,3.99
2018-01-15T01:04:07.264Z,3.99
2018-01-15T01:05:16.711Z,4.07
2018-01-15T01:06:26.164Z,3.96
2018-01-15T01:07:35.626Z,4
2018-01-15T01:08:45.349Z,4
2018-01-15T01:09:54.802Z,4.04
2018-01-15T01:11:04.254Z,4.11
2018-01-15T01:12:13.716Z,4.16
2018-01-15T01:13:22.904Z,4.08
2018-01-15T01:14:32.622Z,3.99
2018-01-15T01:15:41.807Z,4.07
2018-01-15T01:16:51.800Z,3.99
2018-01-15T01:18:01.840Z,4
2018-01-15T01:19:11.296Z,4.04
2018-01-15T01:20:20.756Z,4.07
2018-01-15T01:21:30.462Z,3.96
2018-01-15T01:22:40.449Z,3.92
2018-01-15T01:23:50.159Z,3.93
2018-01-15T01:24:59.876Z,3.96
2018-01-15T01:26:09.066Z,3.92
2018-01-15T01:27:18.545Z,3.9
2018-01-15T01:28:28.258Z,3.9
2018-01-15T01:29:37.979Z,3.9
2018-01-15T01:30:47.693Z,3.93
2018-01-15T01:31:57.412Z,3.9
2018-01-15T01:33:06.872Z,3.92
2018-01-15T01:34:15.799Z,3.81
2018-01-15T01:35:25.528Z,3.84
2018-01-15T01:36:35.556Z,3.78
2018-01-15T01:37:45.545Z,3.96
2018-01-15T01:38:54.738Z,3.78
2018-01-15T01:40:04.728Z,3.88
2018-01-15T01:41:14.702Z,3.96
2018-01-15T01:42:24.695Z,3.9
2018-01-15T01:43:34.191Z,3.9
2018-01-15T01:44:43.701Z,3.92
2018-01-15T01:45:53.681Z,3.89
2018-01-15T01:47:03.130Z,3.84
2018-01-15T01:48:12.840Z,3.9
2018-01-15T01:49:22.106Z,3.84
2018-01-15T01:50:31.565Z,3.9
2018-01-15T01:51:40.752Z,3.89
2018-01-15T01:52:49.942Z,3.95
2018-01-15T01:53:59.404Z,3.88
2018-01-15T01:55:08.868Z,3.92
2018-01-15T01:56:18.844Z,3.95
2018-01-15T01:57:28.592Z,3.95
2018-01-15T01:58:37.770Z,3.9
2018-01-15T01:59:47.483Z,4.02
2018-01-15T02:00:56.927Z,3.98
2018-01-15T02:02:06.914Z,3.93
2018-01-15T02:03:16.380Z,3.93
2018-01-15T02:04:25.579Z,3.96
2018-01-15T02:05:35.454Z,4.08
2018-01-15T02:06:45.430Z,3.98
2018-01-15T02:07:54.391Z,3.93
2018-01-15T02:09:03.573Z,4.04
2018-01-15T02:10:13.087Z,3.98
2018-01-15T02:11:22.275Z,4
2018-01-15T02:12:31.987Z,4
2018-01-15T02:13:41.448Z,3.98
2018-01-15T02:14:51.450Z,3.98
2018-01-15T02:16:00.903Z,3.98
2018-01-15T02:17:10.614Z,3.98
2018-01-15T02:18:20.055Z,3.99
2018-01-15T02:19:29.239Z,4
2018-01-15T02:20:39.021Z,4.07
2018-01-15T02:21:48.529Z,3.92
2018-01-15T02:22:58.761Z,3.98
2018-01-15T02:24:08.478Z,4
2018-01-15T02:25:18.181Z,3.89
2018-01-15T02:26:27.631Z,3.96
2018-01-15T02:27:37.356Z,3.98
2018-01-15T02:28:46.804Z,4.08
2018-01-15T02:29:56.511Z,3.99
2018-01-15T02:31:05.967Z,4.06
2018-01-15T02:32:15.417Z,3.98
2018-01-15T02:33:24.865Z,3.98
2018-01-15T02:34:34.047Z,4
2018-01-15T02:35:43.243Z,4
2018-01-15T02:36:52.950Z,4
2018-01-15T02:38:02.403Z,4.14
2018-01-15T02:39:11.594Z,4.13
2018-01-15T02:40:21.044Z,4.07
2018-01-15T02:41:29.964Z,4.11
2018-01-15T02:42:39.417Z,4.08
2018-01-15T02:43:49.128Z,4.26
2018-01-15T02:44:58.585Z,4.24
2018-01-15T02:46:08.306Z,4.21
2018-01-15T02:47:18.021Z,4.2
2018-01-15T02:48:28.011Z,4.28
2018-01-15T02:49:37.998Z,4.36
2018-01-15T02:50:47.451Z,4.38
2018-01-15T02:51:57.436Z,4.36
2018-01-15T02:53:07.153Z,4.43
2018-01-15T02:54:16.597Z,4.44
2018-01-15T02:55:26.369Z,4.46
2018-01-15T02:56:36.086Z,4.46
2018-01-15T02:57:45.534Z,4.53
2018-01-15T02:58:54.981Z,4.53
2018-01-15T03:00:04.696Z,4.53
2018-01-15T03:01:14.141Z,4.56
2018-01-15T03:02:23.325Z,4.47
2018-01-15T03:03:33.048Z,4.57
2018-01-15T03:04:42.231Z,4.64
2018-01-15T03:05:51.946Z,4.62
2018-01-15T03:07:01.398Z,4.59
2018-01-15T03:08:11.107Z,4.67
2018-01-15T03:09:21.135Z,4.69
2018-01-15T03:10:30.319Z,4.69
2018-01-15T03:11:39.239Z,4.67
2018-01-15T03:12:48.951Z,4.83
2018-01-15T03:13:58.935Z,4.86
2018-01-15T03:15:08.386Z,4.79
2018-01-15T03:16:18.107Z,4.87
2018-01-15T03:17:27.554Z,4.77
2018-01-15T03:18:37.003Z,4.9
2018-01-15T03:19:46.191Z,4.96
2018-01-15T03:20:55.789Z,4.94
2018-01-15T03:22:04.967Z,5.04
2018-01-15T03:23:14.940Z,5.01
2018-01-15T03:24:23.596Z,5.08
2018-01-15T03:25:33.049Z,5.08
2018-01-15T03:26:43.029Z,5.06
2018-01-15T03:27:53.010Z,5.06
2018-01-15T03:29:02.527Z,5.08
2018-01-15T03:30:11.980Z,5.12
2018-01-15T03:31:21.699Z,5.17
2018-01-15T03:32:31.145Z,5.11
2018-01-15T03:33:40.593Z,5.17
2018-01-15T03:34:50.297Z,5.22
2018-01-15T03:36:00.008Z,5.15
2018-01-15T03:37:09.192Z,5.15
2018-01-15T03:38:18.790Z,5.19
2018-01-15T03:39:28.516Z,5.12
2018-01-15T03:40:38.227Z,5.19
2018-01-15T03:41:47.418Z,5.2
2018-01-15T03:42:57.133Z,5.24
2018-01-15T03:44:06.314Z,5.22
2018-01-15T03:45:15.762Z,5.17
2018-01-15T03:46:25.476Z,5.24
2018-01-15T03:47:34.660Z,5.32
2018-01-15T03:48:43.841Z,5.29
2018-01-15T03:49:53.286Z,5.33
2018-01-15T03:51:02.782Z,5.26
2018-01-15T03:52:12.502Z,5.26
2018-01-15T03:53:22.487Z,5.29
2018-01-15T03:54:31.409Z,5.29
2018-01-15T03:55:40.857Z,5.29
2018-01-15T03:56:50.572Z,5.32
2018-01-15T03:57:59.755Z,5.32
2018-01-15T03:59:09.202Z,5.2
2018-01-15T04:00:18.917Z,5.22
2018-01-15T04:01:28.515Z,5.24
2018-01-15T04:02:38.486Z,5.26
2018-01-15T04:03:47.936Z,5.24
2018-01-15T04:04:57.649Z,5.19
2018-01-15T04:06:07.633Z,5.27
2018-01-15T04:07:17.620Z,5.27
2018-01-15T04:08:27.329Z,5.24
2018-01-15T04:09:36.780Z,5.37
2018-01-15T04:10:46.493Z,5.3
2018-01-15T04:11:55.940Z,5.3
2018-01-15T04:13:05.657Z,5.38
2018-01-15T04:14:15.112Z,5.38
2018-01-15T04:15:24.827Z,5.42
2018-01-15T04:16:34.266Z,5.32
2018-01-15T04:17:44.242Z,5.44
2018-01-15T04:18:53.573Z,5.44
2018-01-15T04:20:03.023Z,5.45
2018-01-15T04:21:12.206Z,5.47
2018-01-15T04:22:21.922Z,5.47
2018-01-15T04:23:31.630Z,5.47
2018-01-15T04:24:41.077Z,5.45
2018-01-15T04:25:51.058Z,5.48
2018-01-15T04:27:00.506Z,5.48
2018-01-15T04:28:09.955Z,5.58
2018-01-15T04:29:19.666Z,5.51
2018-01-15T04:30:28.848Z,5.63
2018-01-15T04:31:38.037Z,5.6
2018-01-15T04:32:47.484Z,5.66
2018-01-15T04:33:56.927Z,5.59
2018-01-15T04:35:06.377Z,5.7
2018-01-15T04:36:15.706Z,5.7
2018-01-15T04:37:25.162Z,5.63
2018-01-15T04:38:34.612Z,5.66
2018-01-15T04:39:44.324Z,5.69
2018-01-15T04:40:54.036Z,5.73
2018-01-15T04:42:03.754Z,5.7
2018-01-15T04:43:13.467Z,5.66
2018-01-15T04:44:23.231Z,5.74
2018-01-15T04:45:32.160Z,5.75
2018-01-15T04:46:42.147Z,5.74
2018-01-15T04:47:52.125Z,5.8
2018-01-15T04:49:01.308Z,5.74
2018-01-15T04:50:11.342Z,5.78
2018-01-15T04:51:21.323Z,5.73
2018-01-15T04:52:30.505Z,5.8
2018-01-15T04:53:39.953Z,5.84
2018-01-15T04:54:49.939Z,5.81
2018-01-15T04:55:59.702Z,5.77
2018-01-15T04:57:09.680Z,5.83
2018-01-15T04:58:19.144Z,5.85
2018-01-15T04:59:28.335Z,5.85
2018-01-15T05:00:38.315Z,5.81
2018-01-15T05:01:48.351Z,5.83
2018-01-15T05:02:57.276Z,5.87
2018-01-15T05:04:07.264Z,5.93
2018-01-15T05:05:16.740Z,5.92
2018-01-15T05:06:26.190Z,6.01
2018-01-15T05:07:35.904Z,5.95
2018-01-15T05:08:45.359Z,5.96
2018-01-15T05:09:55.336Z,6.05
2018-01-15T05:11:04.791Z,5.96
2018-01-15T05:12:13.979Z,6.01
2018-01-15T05:13:23.479Z,6.01
2018-01-15T05:14:33.194Z,5.98
2018-01-15T05:15:42.906Z,6.01
2018-01-15T05:16:52.878Z,6.02
2018-01-15T05:18:02.064Z,6.05
2018-01-15T05:19:11.781Z,6.02
2018-01-15T05:20:21.539Z,5.98
2018-01-15T05:21:31.522Z,6.08
2018-01-15T05:22:41.294Z,5.99
2018-01-15T05:23:51.057Z,6.1
2018-01-15T05:25:00.771Z,6.05
2018-01-15T05:26:09.956Z,6.1
2018-01-15T05:27:19.667Z,6.1
2018-01-15T05:28:29.173Z,6.16
2018-01-15T05:29:38.623Z,6.13
2018-01-15T05:30:47.801Z,6.05
2018-01-15T05:31:56.987Z,6.08
2018-01-15T05:33:05.907Z,6.06
2018-01-15T05:34:15.369Z,6.14
2018-01-15T05:35:25.085Z,6.13
2018-01-15T05:36:34.273Z,6.13
2018-01-15T05:37:43.458Z,6.17
2018-01-15T05:38:52.902Z,6.17
2018-01-15T05:40:02.612Z,6.11
2018-01-15T05:41:11.269Z,6.13
2018-01-15T05:42:20.190Z,6.14
2018-01-15T05:43:29.634Z,6.16
2018-01-15T05:44:39.344Z,6.16
2018-01-15T05:45:48.526Z,6.19
2018-01-15T05:46:57.974Z,6.2
2018-01-15T05:48:07.688Z,6.24
2018-01-15T05:49:17.660Z,6.19
2018-01-15T05:50:27.106Z,6.17
2018-01-15T05:51:37.075Z,6.24
2018-01-15T05:52:47.060Z,6.24
2018-01-15T05:53:57.033Z,6.17
2018-01-15T05:55:07.028Z,6.21
2018-01-15T05:56:17.007Z,6.2
2018-01-15T05:57:26.459Z,6.2
2018-01-15T05:58:35.907Z,6.27
2018-01-15T05:59:45.352Z,6.27
2018-01-15T06:00:54.912Z,6.27
2018-01-15T06:02:04.418Z,6.24
2018-01-15T06:03:13.602Z,6.28
2018-01-15T06:04:23.314Z,6.3
2018-01-15T06:05:32.233Z,6.21
2018-01-15T06:06:41.954Z,6.21
2018-01-15T06:07:51.663Z,6.24
2018-01-15T06:09:01.118Z,6.25
2018-01-15T06:10:10.568Z,6.28
2018-01-15T06:11:20.281Z,6.16
2018-01-15T06:12:29.214Z,6.25
2018-01-15T06:13:38.930Z,6.24
2018-01-15T06:14:48.647Z,6.27
2018-01-15T06:15:58.107Z,6.21
2018-01-15T06:17:07.816Z,6.27
2018-01-15T06:18:17.803Z,6.19
2018-01-15T06:19:27.249Z,6.24
2018-01-15T06:20:37.227Z,6.2
2018-01-15T06:21:46.942Z,6.16
2018-01-15T06:22:56.120Z,6.27
2018-01-15T06:24:05.314Z,6.21
2018-01-15T06:25:15.030Z,6.21
2018-01-15T06:26:24.741Z,6.14
2018-01-15T06:27:34.191Z,6.17
2018-01-15T06:28:43.642Z,6.17
2018-01-15T06:29:53.620Z,6.19
2018-01-15T06:31:02.806Z,6.17
2018-01-15T06:32:12.785Z,6.24
2018-01-15T06:33:22.237Z,6.25
2018-01-15T06:34:31.954Z,6.19
2018-01-15T06:35:41.420Z,6.19
2018-01-15T06:36:51.132Z,6.17
2018-01-15T06:38:00.736Z,6.21
2018-01-15T06:39:10.474Z,6.08
2018-01-15T06:40:19.922Z,6.08
2018-01-15T06:41:29.636Z,6.03
2018-01-15T06:42:39.358Z,6.02
2018-01-15T06:43:49.069Z,6.03
2018-01-15T06:44:58.255Z,5.99
2018-01-15T06:46:07.441Z,5.92
2018-01-15T06:47:16.620Z,6.01
2018-01-15T06:48:26.070Z,5.9
2018-01-15T06:49:35.513Z,5.87
2018-01-15T06:50:45.227Z,5.8
2018-01-15T06:51:54.675Z,5.85
2018-01-15T06:53:03.861Z,5.81
2018-01-15T06:54:13.041Z,5.83
2018-01-15T06:55:22.494Z,5.81
2018-01-15T06:56:32.203Z,5.8
2018-01-15T06:57:41.647Z,5.78
2018-01-15T06:58:51.365Z,5.77
2018-01-15T07:00:01.082Z,5.77
2018-01-15T07:01:11.059Z,5.75
2018-01-15T07:02:20.522Z,5.67
2018-01-15T07:03:29.713Z,5.7
2018-01-15T07:04:39.159Z,5.7
2018-01-15T07:05:48.344Z,5.78
2018-01-15T07:06:57.789Z,5.69
2018-01-15T07:08:07.508Z,5.62
2018-01-15T07:09:16.960Z,5.63
2018-01-15T07:10:26.672Z,5.74
2018-01-15T07:11:35.894Z,5.73
2018-01-15T07:12:45.345Z,5.73
2018-01-15T07:13:55.058Z,5.7
2018-01-15T07:15:04.769Z,5.7
2018-01-15T07:16:13.957Z,5.63
2018-01-15T07:17:22.876Z,5.69
2018-01-15T07:18:32.595Z,5.62
2018-01-15T07:19:41.782Z,5.65
2018-01-15T07:20:51.506Z,5.59
2018-01-15T07:22:01.490Z,5.63
2018-01-15T07:23:11.469Z,5.59
2018-01-15T07:24:21.183Z,5.63
2018-01-15T07:25:30.700Z,5.63
2018-01-15T07:26:40.414Z,5.67
2018-01-15T07:27:49.072Z,5.62
2018-01-15T07:28:58.258Z,5.67
2018-01-15T07:30:07.441Z,5.63
2018-01-15T07:31:16.887Z,5.74
2018-01-15T07:32:26.125Z,5.62
2018-01-15T07:33:35.850Z,5.67
2018-01-15T07:34:45.091Z,5.74
2018-01-15T07:35:54.534Z,5.65
2018-01-15T07:37:04.510Z,5.73
2018-01-15T07:38:13.745Z,5.69
2018-01-15T07:39:22.991Z,5.73
2018-01-15T07:40:32.207Z,5.8
2018-01-15T07:41:41.390Z,5.66
2018-01-15T07:42:51.101Z,5.67
2018-01-15T07:44:00.815Z,5.74
2018-01-15T07:45:10.529Z,5.7
2018-01-15T07:46:20.000Z,5.7
2018-01-15T07:47:28.819Z,5.7
2018-01-15T07:48:38.278Z,5.74
2018-01-15T07:49:47.997Z,5.74
2018-01-15T07:50:57.715Z,5.7
2018-01-15T07:52:07.183Z,5.75
2018-01-15T07:53:16.629Z,5.77
2018-01-15T07:54:25.815Z,5.74
2018-01-15T07:55:35.329Z,5.87
2018-01-15T07:56:45.568Z,5.85
2018-01-15T07:57:55.505Z,5.83
2018-01-15T07:59:07.623Z,5.92
2018-01-15T08:00:17.238Z,5.88
2018-01-15T08:01:26.941Z,5.95
2018-01-15T08:02:35.707Z,5.98
2018-01-15T08:03:45.172Z,5.98
2018-01-15T08:04:55.375Z,5.93
2018-01-15T08:06:05.842Z,5.96
2018-01-15T08:07:15.403Z,5.98
2018-01-15T08:08:25.120Z,5.96
2018-01-15T08:09:34.530Z,5.99
2018-01-15T08:10:45.228Z,5.99
2018-01-15T08:11:55.831Z,5.99
2018-01-15T08:13:05.055Z,5.98
2018-01-15T08:14:14.777Z,5.99
2018-01-15T08:15:24.520Z,6.02
2018-01-15T08:16:34.242Z,6.05
2018-01-15T08:17:44.219Z,6.06
2018-01-15T08:18:53.408Z,6.05
2018-01-15T08:20:02.883Z,6.06
2018-01-15T08:21:12.629Z,6.13
2018-01-15T08:22:21.851Z,6.14
2018-01-15T08:23:31.570Z,6.19
2018-01-15T08:24:41.065Z,6.27
2018-01-15T08:25:50.823Z,6.27
2018-01-15T08:27:00.272Z,6.3
2018-01-15T08:28:09.988Z,6.24
2018-01-15T08:29:20.332Z,6.33
2018-01-15T08:30:30.080Z,6.33
2018-01-15T08:31:39.458Z,6.35
2018-01-15T08:32:49.059Z,6.35
2018-01-15T08:33:58.591Z,6.35
2018-01-15T08:35:07.817Z,6.38
2018-01-15T08:36:17.701Z,6.32
2018-01-15T08:37:27.684Z,6.42
2018-01-15T08:38:37.401Z,6.43
2018-01-15T08:39:46.616Z,6.42
2018-01-15T08:40:55.936Z,6.46
2018-01-15T08:42:05.490Z,6.43
2018-01-15T08:43:14.945Z,6.45
2018-01-15T08:44:24.727Z,6.4
2018-01-15T08:45:34.121Z,6.46
2018-01-15T08:46:43.836Z,6.45
2018-01-15T08:47:53.028Z,6.45
2018-01-15T08:49:02.288Z,6.45
2018-01-15T08:50:11.980Z,6.42
2018-01-15T08:51:21.169Z,6.55
2018-01-15T08:52:30.942Z,6.43
2018-01-15T08:53:40.461Z,6.54
2018-01-15T08:54:49.918Z,6.61
2018-01-15T08:55:59.637Z,6.54
2018-01-15T08:57:09.354Z,6.55
2018-01-15T08:58:19.074Z,6.61
2018-01-15T08:59:28.787Z,6.71
2018-01-15T09:00:38.251Z,6.75
2018-01-15T09:01:47.513Z,6.71
2018-01-15T09:02:56.719Z,6.78
2018-01-15T09:04:06.428Z,6.73
2018-01-15T09:05:15.946Z,6.79
2018-01-15T09:06:25.407Z,6.86
2018-01-15T09:07:35.116Z,6.86
2018-01-15T09:08:44.039Z,6.89
2018-01-15T09:09:53.505Z,6.79
2018-01-15T09:11:02.960Z,6.78
2018-01-15T09:12:12.979Z,6.9
2018-01-15T09:13:22.449Z,6.87
2018-01-15T09:14:31.901Z,6.94
2018-01-15T09:15:41.624Z,6.97
2018-01-15T09:16:50.810Z,6.91
2018-01-15T09:18:00.580Z,6.93
2018-01-15T09:19:10.028Z,7
2018-01-15T09:20:20.058Z,7.01
2018-01-15T09:21:29.511Z,7
2018-01-15T09:22:39.324Z,7.08
2018-01-15T09:23:49.060Z,6.99
2018-01-15T09:24:58.511Z,7.01
2018-01-15T09:26:07.431Z,7.05
2018-01-15T09:27:16.620Z,7.11
2018-01-15T09:28:26.073Z,7.15
2018-01-15T09:29:35.525Z,7.27
2018-01-15T09:30:44.710Z,7.21
2018-01-15T09:31:54.427Z,7.33
2018-01-15T09:33:03.874Z,7.36
2018-01-15T09:34:13.141Z,7.33
2018-01-15T09:35:22.602Z,7.47
2018-01-15T09:36:32.207Z,7.52
2018-01-15T09:37:41.923Z,7.48
2018-01-15T09:38:51.369Z,7.62
2018-01-15T09:40:00.557Z,7.74
2018-01-15T09:41:10.308Z,7.7
2018-01-15T09:42:20.022Z,7.71
2018-01-15T09:43:29.743Z,7.73
2018-01-15T09:44:39.248Z,7.88
2018-01-15T09:45:48.217Z,7.82
2018-01-15T09:46:57.668Z,7.84
2018-01-15T09:48:06.851Z,7.88
2018-01-15T09:49:16.841Z,7.85
2018-01-15T09:50:26.294Z,7.84
2018-01-15T09:51:36.086Z,7.85
2018-01-15T09:52:46.071Z,7.7
2018-01-15T09:53:55.786Z,7.81
2018-01-15T09:55:04.971Z,7.7
2018-01-15T09:56:14.439Z,7.73
2018-01-15T09:57:24.156Z,7.7
2018-01-15T09:58:33.612Z,7.73
2018-01-15T09:59:43.323Z,7.67
2018-01-15T10:00:52.782Z,7.63
2018-01-15T10:02:02.488Z,7.71
2018-01-15T10:03:11.681Z,7.69
2018-01-15T10:04:20.868Z,7.82
2018-01-15T10:05:30.049Z,7.88
2018-01-15T10:06:39.768Z,7.96
2018-01-15T10:07:49.494Z,8.04
2018-01-15T10:08:59.208Z,8.03
2018-01-15T10:10:08.682Z,8.02
2018-01-15T10:11:18.307Z,8.07
2018-01-15T10:12:28.173Z,8.09
2018-01-15T10:13:38.150Z,8.2
2018-01-15T10:14:47.872Z,8.13
2018-01-15T10:15:57.584Z,8.21
2018-01-15T10:17:07.578Z,8.13
2018-01-15T10:18:17.296Z,8.21
2018-01-15T10:19:26.530Z,8.21
2018-01-15T10:20:36.001Z,8.34
2018-01-15T10:21:45.456Z,8.37
2018-01-15T10:22:55.170Z,8.4
2018-01-15T10:24:04.888Z,8.46
2018-01-15T10:25:14.608Z,8.4
2018-01-15T10:26:23.577Z,8.39
2018-01-15T10:27:32.762Z,8.47
2018-01-15T10:28:42.473Z,8.47
2018-01-15T10:29:51.928Z,8.47
2018-01-15T10:31:01.119Z,8.4
2018-01-15T10:32:10.578Z,8.34
2018-01-15T10:33:20.300Z,8.37
2018-01-15T10:34:30.034Z,8.37
2018-01-15T10:35:39.484Z,8.32
2018-01-15T10:36:49.463Z,8.22
2018-01-15T10:37:58.922Z,8.36
2018-01-15T10:39:08.649Z,8.39
2018-01-15T10:40:18.361Z,8.34
2018-01-15T10:41:28.078Z,8.28
2018-01-15T10:42:37.528Z,8.31
2018-01-15T10:43:46.982Z,8.4
2018-01-15T10:44:56.166Z,8.36
2018-01-15T10:46:05.384Z,8.29
2018-01-15T10:47:14.840Z,8.39
2018-01-15T10:48:24.580Z,8.52
2018-01-15T10:49:34.298Z,8.37
2018-01-15T10:50:44.281Z,8.43
2018-01-15T10:51:53.198Z,8.39
2018-01-15T10:53:02.648Z,8.43
2018-01-15T10:54:12.100Z,8.43
2018-01-15T10:55:21.073Z,8.37
2018-01-15T10:56:30.848Z,8.39
2018-01-15T10:57:40.306Z,8.43
2018-01-15T10:58:50.288Z,8.47
2018-01-15T11:00:00.043Z,8.42
2018-01-15T11:01:09.760Z,8.4
2018-01-15T11:02:19.213Z,8.52
2018-01-15T11:03:28.673Z,8.43
2018-01-15T11:04:37.620Z,8.43
2018-01-15T11:05:46.569Z,8.49
2018-01-15T11:06:56.298Z,8.49
2018-01-15T11:08:06.166Z,8.5
2018-01-15T11:09:15.102Z,8.49
2018-01-15T11:10:24.550Z,8.54
2018-01-15T11:11:34.051Z,8.58
2018-01-15T11:12:43.505Z,8.6
2018-01-15T11:13:53.271Z,8.64
2018-01-15T11:15:02.206Z,8.6
2018-01-15T11:16:11.950Z,8.73
2018-01-15T11:17:21.692Z,8.67
2018-01-15T11:18:31.158Z,8.68
2018-01-15T11:19:40.082Z,8.7
2018-01-15T11:20:49.881Z,8.73
2018-01-15T11:21:59.334Z,8.78
2018-01-15T11:23:09.076Z,8.7
2018-01-15T11:24:18.531Z,8.7
2018-01-15T11:25:27.587Z,8.73
2018-01-15T11:26:36.557Z,8.71
2018-01-15T11:27:46.274Z,8.71
2018-01-15T11:28:55.729Z,8.83
2018-01-15T11:30:05.182Z,8.91
2018-01-15T11:31:14.637Z,9.01
2018-01-15T11:32:23.840Z,9.16
2018-01-15T11:33:33.024Z,9.23
2018-01-15T11:34:42.754Z,8.94
2018-01-15T11:35:51.979Z,8.91
2018-01-15T11:37:01.125Z,8.93
2018-01-15T11:38:10.839Z,8.89
2018-01-15T11:39:20.285Z,8.79
2018-01-15T11:40:29.479Z,8.71
2018-01-15T11:41:38.775Z,8.7
2018-01-15T11:42:48.466Z,8.76
2018-01-15T11:43:58.253Z,8.73
2018-01-15T11:45:07.726Z,8.73
2018-01-15T11:46:17.212Z,8.65
2018-01-15T11:47:27.001Z,8.7
2018-01-15T11:48:36.453Z,8.75
2018-01-15T11:49:45.911Z,8.64
2018-01-15T11:50:55.360Z,8.63
2018-01-15T11:52:05.115Z,8.58
2018-01-15T11:53:14.301Z,8.55
2018-01-15T11:54:24.287Z,8.63
2018-01-15T11:55:34.388Z,8.67
2018-01-15T11:56:43.900Z,8.64
2018-01-15T11:57:53.361Z,8.75
2018-01-15T11:59:02.609Z,8.67
2018-01-15T12:00:11.798Z,8.85
2018-01-15T12:01:21.788Z,8.8
2018-01-15T12:02:31.779Z,8.91
2018-01-15T12:03:40.971Z,8.93
2018-01-15T12:04:50.767Z,9.01
2018-01-15T12:06:00.808Z,8.98
2018-01-15T12:07:09.958Z,9.03
2018-01-15T12:08:19.673Z,9
2018-01-15T12:09:29.394Z,8.93
2018-01-15T12:10:38.846Z,8.88
2018-01-15T12:11:48.323Z,8.89
2018-01-15T12:12:57.779Z,8.88
2018-01-15T12:14:07.511Z,8.88
2018-01-15T12:15:17.284Z,8.78
2018-01-15T12:16:27.106Z,8.73
2018-01-15T12:17:36.292Z,8.75
2018-01-15T12:18:45.784Z,8.71
2018-01-15T12:19:55.005Z,8.65
2018-01-15T12:21:04.456Z,8.63
2018-01-15T12:22:13.950Z,8.65
2018-01-15T12:23:23.959Z,8.65
2018-01-15T12:24:33.414Z,8.57
2018-01-15T12:25:43.133Z,8.52
2018-01-15T12:26:52.632Z,8.55
2018-01-15T12:28:02.615Z,8.54
2018-01-15T12:29:11.884Z,8.45
2018-01-15T12:30:21.341Z,8.61
2018-01-15T12:31:31.074Z,8.83
2018-01-15T12:32:40.800Z,8.88
2018-01-15T12:33:50.326Z,8.93
2018-01-15T12:34:59.865Z,9.03
2018-01-15T12:36:09.612Z,9.01
2018-01-15T12:37:19.305Z,8.91
2018-01-15T12:38:29.246Z,8.78
2018-01-15T12:39:38.664Z,8.82
2018-01-15T12:40:48.290Z,8.68
2018-01-15T12:41:58.184Z,8.7
2018-01-15T12:43:08.239Z,8.64
2018-01-15T12:44:18.169Z,8.68
2018-01-15T12:45:27.589Z,8.88
2018-01-15T12:46:37.230Z,8.93
2018-01-15T12:47:47.155Z,8.97
2018-01-15T12:48:57.063Z,9.1
2018-01-15T12:50:06.686Z,9.01
2018-01-15T12:51:16.881Z,8.86
2018-01-15T12:52:26.589Z,8.93
2018-01-15T12:53:36.820Z,8.83
2018-01-15T12:54:46.454Z,8.91
2018-01-15T12:55:56.674Z,8.79
2018-01-15T12:57:06.558Z,8.75
2018-01-15T12:58:15.853Z,8.7
2018-01-15T12:59:25.222Z,8.54
2018-01-15T13:00:35.063Z,8.63
2018-01-15T13:01:44.397Z,8.52
2018-01-15T13:02:54.276Z,8.47
2018-01-15T13:04:04.208Z,8.52
2018-01-15T13:05:14.143Z,8.43
2018-01-15T13:06:23.872Z,8.52
2018-01-15T13:07:33.802Z,8.63
2018-01-15T13:08:43.807Z,8.61
2018-01-15T13:09:54.054Z,8.63
2018-01-15T13:11:03.824Z,8.8
2018-01-15T13:12:13.620Z,8.73
2018-01-15T13:13:23.676Z,8.63
2018-01-15T13:14:33.576Z,8.63
2018-01-15T13:15:43.869Z,8.64
2018-01-15T13:16:53.826Z,8.57
2018-01-15T13:18:03.776Z,8.55
2018-01-15T13:19:13.579Z,8.6
2018-01-15T13:20:23.179Z,8.58
2018-01-15T13:21:33.158Z,8.49
2018-01-15T13:22:43.154Z,8.45
2018-01-15T13:23:52.343Z,8.39
2018-01-15T13:25:02.105Z,8.37
2018-01-15T13:26:12.224Z,8.29
2018-01-15T13:27:21.489Z,8.22
2018-01-15T13:28:31.011Z,8.06
2018-01-15T13:29:40.231Z,8.06
2018-01-15T13:30:50.383Z,8.07
2018-01-15T13:31:59.704Z,7.89
2018-01-15T13:33:09.006Z,7.96
2018-01-15T13:34:18.561Z,7.84
2018-01-15T13:35:28.372Z,7.86
2018-01-15T13:36:37.947Z,7.96
2018-01-15T13:37:47.570Z,7.84
2018-01-15T13:38:56.895Z,7.99
2018-01-15T13:40:06.313Z,7.96
2018-01-15T13:41:16.024Z,7.95
2018-01-15T13:42:25.381Z,7.95
2018-01-15T13:43:34.571Z,7.85
2018-01-15T13:44:44.423Z,7.77
2018-01-15T13:45:53.975Z,7.66
2018-01-15T13:47:03.886Z,7.66
2018-01-15T13:48:13.237Z,7.66
2018-01-15T13:49:23.143Z,7.7
2018-01-15T13:50:32.473Z,7.6
2018-01-15T13:51:42.407Z,7.74
2018-01-15T13:52:52.028Z,7.57
2018-01-15T13:54:01.683Z,7.58
2018-01-15T13:55:11.602Z,7.51
2018-01-15T13:56:21.282Z,7.48
2018-01-15T13:57:31.685Z,7.37
2018-01-15T13:58:41.609Z,7.29
2018-01-15T13:59:51.910Z,7.21
2018-01-15T14:01:02.017Z,7.3
2018-01-15T14:02:12.006Z,7.14
2018-01-15T14:03:21.425Z,7.15
2018-01-15T14:04:31.301Z,7.24
2018-01-15T14:05:41.288Z,7.16
2018-01-15T14:06:51.142Z,7.15
2018-01-15T14:08:01.300Z,7.11
2018-01-15T14:09:10.760Z,7.21
2018-01-15T14:10:20.507Z,7.39
2018-01-15T14:11:30.171Z,7.54
2018-01-15T14:12:39.976Z,7.62
2018-01-15T14:13:49.729Z,7.71
2018-01-15T14:14:59.219Z,7.74
2018-01-15T14:16:09.205Z,7.85
2018-01-15T14:17:19.327Z,7.67
2018-01-15T14:18:28.683Z,7.7
2018-01-15T14:19:38.137Z,7.76
2018-01-15T14:20:47.323Z,7.77
2018-01-15T14:21:56.926Z,7.73
2018-01-15T14:23:06.806Z,7.69
2018-01-15T14:24:16.693Z,7.69
2018-01-15T14:25:25.922Z,7.71
2018-01-15T14:26:35.161Z,7.6
2018-01-15T14:27:44.613Z,7.58
2018-01-15T14:28:53.798Z,7.51
2018-01-15T14:30:03.828Z,7.54
2018-01-15T14:31:13.094Z,7.48
2018-01-15T14:32:22.953Z,7.5
2018-01-15T14:33:32.666Z,7.5
2018-01-15T14:34:42.426Z,7.42
2018-01-15T14:35:52.244Z,7.39
2018-01-15T14:37:01.709Z,7.45
2018-01-15T14:38:10.639Z,7.42
2018-01-15T14:39:20.623Z,7.34
2018-01-15T14:40:29.821Z,7.39
2018-01-15T14:41:40.084Z,7.39
2018-01-15T14:42:49.932Z,7.44
2018-01-15T14:43:59.172Z,7.37
2018-01-15T14:45:08.982Z,7.39
2018-01-15T14:46:18.434Z,7.33
2018-01-15T14:47:27.893Z,7.29
2018-01-15T14:48:37.408Z,7.29
2018-01-15T14:49:47.119Z,7.26
2018-01-15T14:50:56.833Z,7.26
2018-01-15T14:52:06.818Z,7.29
2018-01-15T14:53:16.543Z,7.32
2018-01-15T14:54:26.257Z,7.21
2018-01-15T14:55:35.728Z,7.24
2018-01-15T14:56:45.194Z,7.18
2018-01-15T14:57:54.384Z,7.12
2018-01-15T14:59:03.883Z,7.07
2018-01-15T15:00:13.603Z,7.08
2018-01-15T15:01:22.609Z,7.15
2018-01-15T15:02:32.065Z,7.08
2018-01-15T15:03:41.288Z,7
2018-01-15T15:04:50.741Z,7.04
2018-01-15T15:06:00.267Z,7
2018-01-15T15:07:09.859Z,7
2018-01-15T15:08:19.392Z,6.91
2018-01-15T15:09:28.582Z,7.04
2018-01-15T15:10:38.378Z,6.93
2018-01-15T15:11:47.603Z,6.99
2018-01-15T15:12:56.787Z,6.87
2018-01-15T15:14:06.891Z,6.89
2018-01-15T15:15:16.720Z,6.97
2018-01-15T15:16:26.185Z,6.94
2018-01-15T15:17:35.632Z,6.91
2018-01-15T15:18:44.659Z,6.9
2018-01-15T15:19:53.846Z,6.94
2018-01-15T15:21:03.084Z,6.89
2018-01-15T15:22:12.568Z,6.91
2018-01-15T15:23:22.063Z,6.94
2018-01-15T15:24:31.770Z,6.9
2018-01-15T15:25:41.506Z,6.97
2018-01-15T15:26:51.527Z,6.91
2018-01-15T15:28:00.737Z,6.93
2018-01-15T15:29:09.942Z,6.97
2018-01-15T15:30:19.388Z,6.93